KCCA/CCA METAR and TAF weather

Enter ICAO airport designator
Station Type Date Time Source
KCCA METAR 2021/09/24 02:15 UTC NOAA

KCCA 240215Z AUTO 00000KT 9SM CLR 13/10 A3008 RMK AO2


Station Type Date Time Source
KCCA Decoded METAR 2021/09/24 02:15 UTC NOAA

Station name not available
Sep 23, 2021 - 10:15 PM EDT / 2021.09.24 0215 UTC
Wind: Calm:0
Visibility: 9 mile(s):0
Sky conditions: clear
Temperature: 55 F (13 C)
Dew Point: 50 F (10 C)
Relative Humidity: 81%
Pressure (altimeter): 30.08 in. Hg (1018 hPa)
ob: KCCA 240215Z AUTO 00000KT 9SM CLR 13/10 A3008 RMK AO2
cycle: 2

Station Type Date Time Source
KCCA TAF UTC NOAA

Error!

Example: see airport list